sensor_id;sensor_type;location;lat;lon;timestamp;temperature;humidity
53711;DHT22;39605;52.704;6.752;2023-03-31T00:01:35;10.80;71.70
53711;DHT22;39605;52.704;6.752;2023-03-31T00:04:07;10.80;71.60
53711;DHT22;39605;52.704;6.752;2023-03-31T00:06:36;10.80;69.80
53711;DHT22;39605;52.704;6.752;2023-03-31T00:09:13;10.80;71.00
53711;DHT22;39605;52.704;6.752;2023-03-31T00:11:44;10.80;69.60
53711;DHT22;39605;52.704;6.752;2023-03-31T00:14:10;10.70;70.00
53711;DHT22;39605;52.704;6.752;2023-03-31T00:16:36;10.80;70.10
53711;DHT22;39605;52.704;6.752;2023-03-31T00:19:03;10.70;70.30
53711;DHT22;39605;52.704;6.752;2023-03-31T00:21:29;10.70;71.30
53711;DHT22;39605;52.704;6.752;2023-03-31T00:24:03;10.60;72.30
53711;DHT22;39605;52.704;6.752;2023-03-31T00:26:29;10.70;71.90
53711;DHT22;39605;52.704;6.752;2023-03-31T00:28:56;10.60;72.40
53711;DHT22;39605;52.704;6.752;2023-03-31T00:31:22;10.60;72.30
53711;DHT22;39605;52.704;6.752;2023-03-31T00:33:49;10.60;72.30
53711;DHT22;39605;52.704;6.752;2023-03-31T00:36:15;10.60;72.40
53711;DHT22;39605;52.704;6.752;2023-03-31T00:38:55;10.50;73.80
53711;DHT22;39605;52.704;6.752;2023-03-31T00:41:24;10.50;74.10
53711;DHT22;39605;52.704;6.752;2023-03-31T00:49:18;10.40;80.50
53711;DHT22;39605;52.704;6.752;2023-03-31T00:51:47;10.40;81.80
53711;DHT22;39605;52.704;6.752;2023-03-31T00:54:14;10.30;86.90
53711;DHT22;39605;52.704;6.752;2023-03-31T00:56:43;10.30;92.20
53711;DHT22;39605;52.704;6.752;2023-03-31T00:59:10;10.30;91.20
53711;DHT22;39605;52.704;6.752;2023-03-31T01:01:39;10.30;91.60
53711;DHT22;39605;52.704;6.752;2023-03-31T01:04:07;10.30;93.20
53711;DHT22;39605;52.704;6.752;2023-03-31T01:06:38;10.30;92.90
53711;DHT22;39605;52.704;6.752;2023-03-31T01:09:06;10.30;95.00
53711;DHT22;39605;52.704;6.752;2023-03-31T01:11:33;10.30;95.80
53711;DHT22;39605;52.704;6.752;2023-03-31T01:14:00;10.30;95.30
53711;DHT22;39605;52.704;6.752;2023-03-31T01:16:26;10.30;95.90
53711;DHT22;39605;52.704;6.752;2023-03-31T01:18:51;10.30;96.90
53711;DHT22;39605;52.704;6.752;2023-03-31T01:24:18;10.20;96.50
53711;DHT22;39605;52.704;6.752;2023-03-31T01:27:05;10.20;96.20
53711;DHT22;39605;52.704;6.752;2023-03-31T01:41:04;10.10;96.60
53711;DHT22;39605;52.704;6.752;2023-03-31T01:43:58;10.10;96.90
53711;DHT22;39605;52.704;6.752;2023-03-31T01:46:31;10.20;97.50
53711;DHT22;39605;52.704;6.752;2023-03-31T01:49:21;10.10;97.90
53711;DHT22;39605;52.704;6.752;2023-03-31T01:51:56;10.10;98.00
53711;DHT22;39605;52.704;6.752;2023-03-31T02:00:08;10.10;97.50
53711;DHT22;39605;52.704;6.752;2023-03-31T02:02:46;10.10;97.40
53711;DHT22;39605;52.704;6.752;2023-03-31T02:05:24;10.10;97.60
53711;DHT22;39605;52.704;6.752;2023-03-31T02:07:53;10.10;98.40
53711;DHT22;39605;52.704;6.752;2023-03-31T02:10:20;10.10;98.20
53711;DHT22;39605;52.704;6.752;2023-03-31T02:12:48;10.10;98.10
53711;DHT22;39605;52.704;6.752;2023-03-31T02:15:20;10.10;98.40
53711;DHT22;39605;52.704;6.752;2023-03-31T02:17:48;10.10;98.90
53711;DHT22;39605;52.704;6.752;2023-03-31T02:20:17;10.10;98.40
53711;DHT22;39605;52.704;6.752;2023-03-31T02:22:54;10.10;98.40
53711;DHT22;39605;52.704;6.752;2023-03-31T02:25:27;10.10;98.40
53711;DHT22;39605;52.704;6.752;2023-03-31T02:28:04;10.10;98.30
53711;DHT22;39605;52.704;6.752;2023-03-31T02:33:27;10.20;98.20
53711;DHT22;39605;52.704;6.752;2023-03-31T02:35:53;10.20;99.20
53711;DHT22;39605;52.704;6.752;2023-03-31T02:38:19;10.20;98.40
53711;DHT22;39605;52.704;6.752;2023-03-31T02:40:45;10.20;97.90
53711;DHT22;39605;52.704;6.752;2023-03-31T02:43:10;10.20;98.70
53711;DHT22;39605;52.704;6.752;2023-03-31T02:48:16;10.30;98.50
53711;DHT22;39605;52.704;6.752;2023-03-31T02:51:00;10.30;98.20
53711;DHT22;39605;52.704;6.752;2023-03-31T03:15:30;10.40;98.90
53711;DHT22;39605;52.704;6.752;2023-03-31T03:17:57;10.40;99.20
53711;DHT22;39605;52.704;6.752;2023-03-31T03:20:23;10.30;99.90
53711;DHT22;39605;52.704;6.752;2023-03-31T03:22:49;10.30;99.90
53711;DHT22;39605;52.704;6.752;2023-03-31T03:25:16;10.30;99.80
53711;DHT22;39605;52.704;6.752;2023-03-31T03:27:42;10.30;99.90
53711;DHT22;39605;52.704;6.752;2023-03-31T03:30:10;10.30;99.90
53711;DHT22;39605;52.704;6.752;2023-03-31T03:32:36;10.30;99.90
53711;DHT22;39605;52.704;6.752;2023-03-31T03:35:03;10.30;99.90
53711;DHT22;39605;52.704;6.752;2023-03-31T03:37:29;10.30;99.90
53711;DHT22;39605;52.704;6.752;2023-03-31T03:39:55;10.30;99.90
53711;DHT22;39605;52.704;6.752;2023-03-31T03:42:21;10.30;99.90
53711;DHT22;39605;52.704;6.752;2023-03-31T03:44:47;10.30;99.90
53711;DHT22;39605;52.704;6.752;2023-03-31T03:47:13;10.20;99.90
53711;DHT22;39605;52.704;6.752;2023-03-31T03:49:39;10.20;99.90
53711;DHT22;39605;52.704;6.752;2023-03-31T03:52:04;10.20;99.90
53711;DHT22;39605;52.704;6.752;2023-03-31T03:54:30;10.20;99.90
53711;DHT22;39605;52.704;6.752;2023-03-31T03:56:56;10.20;99.90
53711;DHT22;39605;52.704;6.752;2023-03-31T03:59:22;10.20;99.90
53711;DHT22;39605;52.704;6.752;2023-03-31T04:01:48;10.20;99.90
53711;DHT22;39605;52.704;6.752;2023-03-31T04:04:14;10.10;99.90
53711;DHT22;39605;52.704;6.752;2023-03-31T04:06:40;10.10;99.90
53711;DHT22;39605;52.704;6.752;2023-03-31T04:09:06;10.10;99.90
53711;DHT22;39605;52.704;6.752;2023-03-31T04:11:32;10.10;99.90
53711;DHT22;39605;52.704;6.752;2023-03-31T04:13:58;10.00;99.90
53711;DHT22;39605;52.704;6.752;2023-03-31T04:16:24;10.10;99.90
53711;DHT22;39605;52.704;6.752;2023-03-31T04:18:51;10.10;99.90
53711;DHT22;39605;52.704;6.752;2023-03-31T04:21:17;10.00;99.90
53711;DHT22;39605;52.704;6.752;2023-03-31T04:23:51;10.00;99.90
53711;DHT22;39605;52.704;6.752;2023-03-31T04:26:24;10.10;99.90
53711;DHT22;39605;52.704;6.752;2023-03-31T04:28:58;10.10;99.90
53711;DHT22;39605;52.704;6.752;2023-03-31T04:31:27;10.10;99.90
53711;DHT22;39605;52.704;6.752;2023-03-31T04:33:55;10.10;99.90
53711;DHT22;39605;52.704;6.752;2023-03-31T04:36:25;10.20;99.90
53711;DHT22;39605;52.704;6.752;2023-03-31T04:38:51;10.10;99.90
53711;DHT22;39605;52.704;6.752;2023-03-31T04:41:19;10.20;99.90
53711;DHT22;39605;52.704;6.752;2023-03-31T04:43:45;10.10;99.90
53711;DHT22;39605;52.704;6.752;2023-03-31T04:46:11;10.10;99.90
53711;DHT22;39605;52.704;6.752;2023-03-31T04:48:38;10.20;99.90
53711;DHT22;39605;52.704;6.752;2023-03-31T04:51:04;10.20;99.90
53711;DHT22;39605;52.704;6.752;2023-03-31T04:53:30;10.20;99.90
53711;DHT22;39605;52.704;6.752;2023-03-31T04:55:56;10.10;99.90
53711;DHT22;39605;52.704;6.752;2023-03-31T04:58:22;10.10;99.90
53711;DHT22;39605;52.704;6.752;2023-03-31T05:00:47;10.10;99.90
53711;DHT22;39605;52.704;6.752;2023-03-31T05:03:13;10.10;99.90
53711;DHT22;39605;52.704;6.752;2023-03-31T05:05:39;10.20;99.90
53711;DHT22;39605;52.704;6.752;2023-03-31T05:08:05;10.20;99.90
53711;DHT22;39605;52.704;6.752;2023-03-31T05:10:31;10.20;99.90
53711;DHT22;39605;52.704;6.752;2023-03-31T05:12:57;10.20;99.90
53711;DHT22;39605;52.704;6.752;2023-03-31T05:15:23;10.10;99.90
53711;DHT22;39605;52.704;6.752;2023-03-31T05:17:49;10.20;99.90
53711;DHT22;39605;52.704;6.752;2023-03-31T05:20:17;10.20;99.90
53711;DHT22;39605;52.704;6.752;2023-03-31T05:22:45;10.20;99.90
53711;DHT22;39605;52.704;6.752;2023-03-31T05:25:11;10.20;99.90
53711;DHT22;39605;52.704;6.752;2023-03-31T05:27:44;10.10;99.90
53711;DHT22;39605;52.704;6.752;2023-03-31T05:30:12;10.10;99.90
53711;DHT22;39605;52.704;6.752;2023-03-31T05:32:37;10.10;99.90
53711;DHT22;39605;52.704;6.752;2023-03-31T05:35:03;10.10;99.90
53711;DHT22;39605;52.704;6.752;2023-03-31T05:37:29;10.10;99.90
53711;DHT22;39605;52.704;6.752;2023-03-31T05:39:56;10.10;99.90
53711;DHT22;39605;52.704;6.752;2023-03-31T05:42:22;10.10;99.90
53711;DHT22;39605;52.704;6.752;2023-03-31T05:44:48;10.10;99.90
53711;DHT22;39605;52.704;6.752;2023-03-31T05:47:14;10.10;99.90
53711;DHT22;39605;52.704;6.752;2023-03-31T05:49:40;10.10;99.90
53711;DHT22;39605;52.704;6.752;2023-03-31T05:52:07;10.10;99.90
53711;DHT22;39605;52.704;6.752;2023-03-31T05:54:32;10.10;99.90
53711;DHT22;39605;52.704;6.752;2023-03-31T05:56:58;10.10;99.90
53711;DHT22;39605;52.704;6.752;2023-03-31T05:59:24;10.10;99.90
53711;DHT22;39605;52.704;6.752;2023-03-31T06:01:49;10.00;99.90
53711;DHT22;39605;52.704;6.752;2023-03-31T06:04:15;10.00;99.90
53711;DHT22;39605;52.704;6.752;2023-03-31T06:06:41;10.00;99.90
53711;DHT22;39605;52.704;6.752;2023-03-31T06:09:07;10.00;99.90
53711;DHT22;39605;52.704;6.752;2023-03-31T06:11:33;10.00;99.90
53711;DHT22;39605;52.704;6.752;2023-03-31T06:13:59;10.00;99.90
53711;DHT22;39605;52.704;6.752;2023-03-31T06:16:24;10.00;99.90
53711;DHT22;39605;52.704;6.752;2023-03-31T06:18:50;10.00;99.90
53711;DHT22;39605;52.704;6.752;2023-03-31T06:21:18;10.00;99.90
53711;DHT22;39605;52.704;6.752;2023-03-31T06:23:45;10.00;99.90
53711;DHT22;39605;52.704;6.752;2023-03-31T06:26:13;10.00;99.90
53711;DHT22;39605;52.704;6.752;2023-03-31T06:28:39;10.00;99.90
53711;DHT22;39605;52.704;6.752;2023-03-31T06:31:07;10.00;99.90
53711;DHT22;39605;52.704;6.752;2023-03-31T06:33:34;10.00;99.90
53711;DHT22;39605;52.704;6.752;2023-03-31T06:36:00;10.00;99.90
53711;DHT22;39605;52.704;6.752;2023-03-31T06:38:28;10.00;99.90
53711;DHT22;39605;52.704;6.752;2023-03-31T06:40:54;10.00;99.90
53711;DHT22;39605;52.704;6.752;2023-03-31T06:43:20;10.00;99.90
53711;DHT22;39605;52.704;6.752;2023-03-31T06:45:46;10.00;99.90
53711;DHT22;39605;52.704;6.752;2023-03-31T06:48:12;10.00;99.90
53711;DHT22;39605;52.704;6.752;2023-03-31T06:50:39;10.00;99.90
53711;DHT22;39605;52.704;6.752;2023-03-31T06:53:06;10.10;99.90
53711;DHT22;39605;52.704;6.752;2023-03-31T06:55:33;10.10;99.90
53711;DHT22;39605;52.704;6.752;2023-03-31T06:58:00;10.10;99.90
53711;DHT22;39605;52.704;6.752;2023-03-31T07:00:26;10.20;99.90
53711;DHT22;39605;52.704;6.752;2023-03-31T07:02:53;10.20;99.90
53711;DHT22;39605;52.704;6.752;2023-03-31T07:05:19;10.20;99.90
53711;DHT22;39605;52.704;6.752;2023-03-31T07:07:57;10.30;99.90
53711;DHT22;39605;52.704;6.752;2023-03-31T07:10:26;10.30;99.90
53711;DHT22;39605;52.704;6.752;2023-03-31T07:12:52;10.30;99.90
53711;DHT22;39605;52.704;6.752;2023-03-31T07:15:18;10.30;99.90
53711;DHT22;39605;52.704;6.752;2023-03-31T07:17:44;10.30;99.90
53711;DHT22;39605;52.704;6.752;2023-03-31T07:20:14;10.30;99.90
53711;DHT22;39605;52.704;6.752;2023-03-31T07:22:44;10.30;99.90
53711;DHT22;39605;52.704;6.752;2023-03-31T07:25:13;10.40;99.90
53711;DHT22;39605;52.704;6.752;2023-03-31T07:27:39;10.40;99.90
53711;DHT22;39605;52.704;6.752;2023-03-31T07:30:11;10.40;99.90
53711;DHT22;39605;52.704;6.752;2023-03-31T07:32:38;10.40;99.90
53711;DHT22;39605;52.704;6.752;2023-03-31T07:35:10;10.40;99.90
53711;DHT22;39605;52.704;6.752;2023-03-31T07:37:40;10.50;99.90
53711;DHT22;39605;52.704;6.752;2023-03-31T07:40:08;10.50;99.90
53711;DHT22;39605;52.704;6.752;2023-03-31T07:42:35;10.50;99.90
53711;DHT22;39605;52.704;6.752;2023-03-31T07:45:01;10.50;99.90
53711;DHT22;39605;52.704;6.752;2023-03-31T07:47:27;10.50;99.90
53711;DHT22;39605;52.704;6.752;2023-03-31T07:49:56;10.60;99.90
53711;DHT22;39605;52.704;6.752;2023-03-31T07:52:22;10.60;99.90
53711;DHT22;39605;52.704;6.752;2023-03-31T07:54:48;10.60;99.90
53711;DHT22;39605;52.704;6.752;2023-03-31T07:57:14;10.60;99.90
53711;DHT22;39605;52.704;6.752;2023-03-31T07:59:42;10.60;99.90
53711;DHT22;39605;52.704;6.752;2023-03-31T08:02:11;10.60;99.90
53711;DHT22;39605;52.704;6.752;2023-03-31T08:04:37;10.60;99.90
53711;DHT22;39605;52.704;6.752;2023-03-31T08:07:07;10.60;99.90
53711;DHT22;39605;52.704;6.752;2023-03-31T08:09:33;10.60;99.90
53711;DHT22;39605;52.704;6.752;2023-03-31T08:11:58;10.60;99.90
53711;DHT22;39605;52.704;6.752;2023-03-31T08:14:24;10.60;99.90
53711;DHT22;39605;52.704;6.752;2023-03-31T08:16:50;10.70;99.90
53711;DHT22;39605;52.704;6.752;2023-03-31T08:19:17;10.70;99.90
53711;DHT22;39605;52.704;6.752;2023-03-31T08:21:43;10.70;99.90
53711;DHT22;39605;52.704;6.752;2023-03-31T08:24:09;10.80;99.90
53711;DHT22;39605;52.704;6.752;2023-03-31T08:26:35;10.80;99.90
53711;DHT22;39605;52.704;6.752;2023-03-31T08:29:00;10.80;99.90
53711;DHT22;39605;52.704;6.752;2023-03-31T08:31:28;10.80;99.90
53711;DHT22;39605;52.704;6.752;2023-03-31T08:33:56;10.80;99.90
53711;DHT22;39605;52.704;6.752;2023-03-31T08:36:22;10.90;99.90
53711;DHT22;39605;52.704;6.752;2023-03-31T08:38:47;10.90;99.90
53711;DHT22;39605;52.704;6.752;2023-03-31T08:43:59;11.00;99.90
53711;DHT22;39605;52.704;6.752;2023-03-31T08:46:28;11.00;99.90
53711;DHT22;39605;52.704;6.752;2023-03-31T08:48:58;11.00;99.90
53711;DHT22;39605;52.704;6.752;2023-03-31T08:51:40;11.00;99.90
53711;DHT22;39605;52.704;6.752;2023-03-31T08:54:20;11.00;99.90
53711;DHT22;39605;52.704;6.752;2023-03-31T08:56:48;11.00;99.90
53711;DHT22;39605;52.704;6.752;2023-03-31T08:59:35;11.00;99.90
53711;DHT22;39605;52.704;6.752;2023-03-31T09:02:23;11.00;99.90
53711;DHT22;39605;52.704;6.752;2023-03-31T09:10:57;11.00;99.90
53711;DHT22;39605;52.704;6.752;2023-03-31T09:19:01;11.10;99.90
53711;DHT22;39605;52.704;6.752;2023-03-31T09:24:09;11.00;99.90
53711;DHT22;39605;52.704;6.752;2023-03-31T09:26:43;11.00;99.90
53711;DHT22;39605;52.704;6.752;2023-03-31T09:29:26;11.00;99.90
53711;DHT22;39605;52.704;6.752;2023-03-31T09:31:55;11.00;99.90
53711;DHT22;39605;52.704;6.752;2023-03-31T09:34:29;11.00;99.90
53711;DHT22;39605;52.704;6.752;2023-03-31T09:36:55;11.10;99.90
53711;DHT22;39605;52.704;6.752;2023-03-31T09:39:21;11.10;99.90
53711;DHT22;39605;52.704;6.752;2023-03-31T09:41:49;11.20;99.90
53711;DHT22;39605;52.704;6.752;2023-03-31T09:44:27;11.20;99.90
53711;DHT22;39605;52.704;6.752;2023-03-31T09:46:58;11.30;99.90
53711;DHT22;39605;52.704;6.752;2023-03-31T09:49:27;11.30;99.90
53711;DHT22;39605;52.704;6.752;2023-03-31T09:52:27;11.40;99.90
53711;DHT22;39605;52.704;6.752;2023-03-31T09:54:55;11.40;99.90
53711;DHT22;39605;52.704;6.752;2023-03-31T09:57:33;11.40;99.90
53711;DHT22;39605;52.704;6.752;2023-03-31T10:02:49;11.50;99.90
53711;DHT22;39605;52.704;6.752;2023-03-31T10:05:25;11.50;99.90
53711;DHT22;39605;52.704;6.752;2023-03-31T10:08:18;11.50;99.90
53711;DHT22;39605;52.704;6.752;2023-03-31T10:10:43;11.50;99.90
53711;DHT22;39605;52.704;6.752;2023-03-31T10:13:15;11.40;99.90
53711;DHT22;39605;52.704;6.752;2023-03-31T10:15:41;11.50;99.90
53711;DHT22;39605;52.704;6.752;2023-03-31T10:18:13;11.50;99.90
53711;DHT22;39605;52.704;6.752;2023-03-31T10:20:52;11.60;99.90
53711;DHT22;39605;52.704;6.752;2023-03-31T10:23:26;11.60;99.90
53711;DHT22;39605;52.704;6.752;2023-03-31T10:25:53;11.80;99.90
53711;DHT22;39605;52.704;6.752;2023-03-31T10:28:19;11.90;99.90
53711;DHT22;39605;52.704;6.752;2023-03-31T10:30:54;11.90;99.90
53711;DHT22;39605;52.704;6.752;2023-03-31T10:33:26;11.90;99.90
53711;DHT22;39605;52.704;6.752;2023-03-31T10:35:58;12.00;99.90
53711;DHT22;39605;52.704;6.752;2023-03-31T10:38:44;11.90;99.90
53711;DHT22;39605;52.704;6.752;2023-03-31T10:41:11;11.90;99.90
53711;DHT22;39605;52.704;6.752;2023-03-31T10:43:47;12.00;99.90
53711;DHT22;39605;52.704;6.752;2023-03-31T10:46:13;12.00;99.90
53711;DHT22;39605;52.704;6.752;2023-03-31T10:48:41;11.90;99.90
53711;DHT22;39605;52.704;6.752;2023-03-31T10:51:21;11.90;99.90
53711;DHT22;39605;52.704;6.752;2023-03-31T10:53:52;11.90;99.90
53711;DHT22;39605;52.704;6.752;2023-03-31T11:21:19;12.40;99.90
53711;DHT22;39605;52.704;6.752;2023-03-31T11:23:58;12.30;99.90
53711;DHT22;39605;52.704;6.752;2023-03-31T11:26:36;12.30;99.90
53711;DHT22;39605;52.704;6.752;2023-03-31T11:29:29;12.30;99.90
53711;DHT22;39605;52.704;6.752;2023-03-31T11:35:02;12.30;99.90
53711;DHT22;39605;52.704;6.752;2023-03-31T11:42:56;12.30;99.90
53711;DHT22;39605;52.704;6.752;2023-03-31T11:45:46;12.30;99.90
53711;DHT22;39605;52.704;6.752;2023-03-31T11:48:40;12.40;99.90
53711;DHT22;39605;52.704;6.752;2023-03-31T11:51:15;12.40;99.90
53711;DHT22;39605;52.704;6.752;2023-03-31T11:53:44;12.30;99.90
53711;DHT22;39605;52.704;6.752;2023-03-31T11:56:12;12.30;99.90
53711;DHT22;39605;52.704;6.752;2023-03-31T11:59:05;12.30;99.90
53711;DHT22;39605;52.704;6.752;2023-03-31T12:01:53;12.30;99.90
53711;DHT22;39605;52.704;6.752;2023-03-31T12:04:31;12.30;99.90
53711;DHT22;39605;52.704;6.752;2023-03-31T12:07:22;12.50;99.90
53711;DHT22;39605;52.704;6.752;2023-03-31T12:10:17;12.60;99.90
53711;DHT22;39605;52.704;6.752;2023-03-31T12:13:08;12.80;99.90
53711;DHT22;39605;52.704;6.752;2023-03-31T12:15:41;13.00;99.90
53711;DHT22;39605;52.704;6.752;2023-03-31T12:18:13;13.20;99.90
53711;DHT22;39605;52.704;6.752;2023-03-31T12:20:43;13.50;99.90
53711;DHT22;39605;52.704;6.752;2023-03-31T12:23:17;13.70;99.90
53711;DHT22;39605;52.704;6.752;2023-03-31T12:28:50;13.80;99.90
53711;DHT22;39605;52.704;6.752;2023-03-31T12:31:20;13.90;99.90
53711;DHT22;39605;52.704;6.752;2023-03-31T12:33:58;14.10;99.90
53711;DHT22;39605;52.704;6.752;2023-03-31T12:42:28;14.20;99.90
53711;DHT22;39605;52.704;6.752;2023-03-31T12:53:14;13.70;99.90
53711;DHT22;39605;52.704;6.752;2023-03-31T12:55:48;13.70;99.90
53711;DHT22;39605;52.704;6.752;2023-03-31T13:09:00;13.50;99.90
53711;DHT22;39605;52.704;6.752;2023-03-31T13:14:23;13.40;99.90
53711;DHT22;39605;52.704;6.752;2023-03-31T13:16:50;13.30;99.90
53711;DHT22;39605;52.704;6.752;2023-03-31T13:19:34;13.20;99.90
53711;DHT22;39605;52.704;6.752;2023-03-31T13:22:02;13.20;99.90
53711;DHT22;39605;52.704;6.752;2023-03-31T13:24:29;13.30;99.90
53711;DHT22;39605;52.704;6.752;2023-03-31T13:26:57;13.30;99.90
53711;DHT22;39605;52.704;6.752;2023-03-31T13:29:41;13.30;99.90
53711;DHT22;39605;52.704;6.752;2023-03-31T13:35:13;13.40;99.90
53711;DHT22;39605;52.704;6.752;2023-03-31T13:38:08;13.50;99.90
53711;DHT22;39605;52.704;6.752;2023-03-31T13:51:58;13.20;99.90
53711;DHT22;39605;52.704;6.752;2023-03-31T14:05:33;12.50;99.90
53711;DHT22;39605;52.704;6.752;2023-03-31T14:08:13;12.50;99.90
53711;DHT22;39605;52.704;6.752;2023-03-31T14:10:42;12.40;99.90
53711;DHT22;39605;52.704;6.752;2023-03-31T14:13:14;12.40;99.90
53711;DHT22;39605;52.704;6.752;2023-03-31T14:15:50;12.50;99.90
53711;DHT22;39605;52.704;6.752;2023-03-31T14:18:24;12.50;99.90
53711;DHT22;39605;52.704;6.752;2023-03-31T14:24:13;12.60;99.90
53711;DHT22;39605;52.704;6.752;2023-03-31T14:27:15;12.60;99.90
53711;DHT22;39605;52.704;6.752;2023-03-31T14:30:32;12.50;99.90
53711;DHT22;39605;52.704;6.752;2023-03-31T14:33:37;12.50;99.90
53711;DHT22;39605;52.704;6.752;2023-03-31T14:35:58;12.50;99.90
53711;DHT22;39605;52.704;6.752;2023-03-31T14:38:27;12.50;99.90
53711;DHT22;39605;52.704;6.752;2023-03-31T14:40:55;12.50;99.90
53711;DHT22;39605;52.704;6.752;2023-03-31T14:43:25;12.40;99.90
53711;DHT22;39605;52.704;6.752;2023-03-31T14:46:12;12.40;99.90
53711;DHT22;39605;52.704;6.752;2023-03-31T14:48:45;12.40;99.90
53711;DHT22;39605;52.704;6.752;2023-03-31T14:51:14;12.40;99.90
53711;DHT22;39605;52.704;6.752;2023-03-31T14:53:41;12.40;99.90
53711;DHT22;39605;52.704;6.752;2023-03-31T14:56:24;12.50;99.90
53711;DHT22;39605;52.704;6.752;2023-03-31T14:58:53;12.50;99.90
53711;DHT22;39605;52.704;6.752;2023-03-31T15:01:29;12.60;99.90
53711;DHT22;39605;52.704;6.752;2023-03-31T15:04:08;12.70;99.90
53711;DHT22;39605;52.704;6.752;2023-03-31T15:06:35;12.80;99.90
53711;DHT22;39605;52.704;6.752;2023-03-31T15:09:05;12.80;99.90
53711;DHT22;39605;52.704;6.752;2023-03-31T15:11:30;12.90;99.90
53711;DHT22;39605;52.704;6.752;2023-03-31T15:13:58;12.90;99.90
53711;DHT22;39605;52.704;6.752;2023-03-31T15:16:44;13.00;99.90
53711;DHT22;39605;52.704;6.752;2023-03-31T15:19:19;13.00;99.90
53711;DHT22;39605;52.704;6.752;2023-03-31T15:21:45;13.00;99.90
53711;DHT22;39605;52.704;6.752;2023-03-31T15:24:12;13.10;99.90
53711;DHT22;39605;52.704;6.752;2023-03-31T15:29:20;13.00;99.90
53711;DHT22;39605;52.704;6.752;2023-03-31T15:31:47;13.10;99.90
53711;DHT22;39605;52.704;6.752;2023-03-31T15:34:26;13.10;99.90
53711;DHT22;39605;52.704;6.752;2023-03-31T15:36:55;13.10;99.90
53711;DHT22;39605;52.704;6.752;2023-03-31T15:39:23;13.10;99.90
53711;DHT22;39605;52.704;6.752;2023-03-31T15:41:49;13.10;99.90
53711;DHT22;39605;52.704;6.752;2023-03-31T15:44:28;13.10;99.90
53711;DHT22;39605;52.704;6.752;2023-03-31T15:47:05;13.10;99.90
53711;DHT22;39605;52.704;6.752;2023-03-31T15:49:32;13.00;99.90
53711;DHT22;39605;52.704;6.752;2023-03-31T15:51:57;13.00;99.90
53711;DHT22;39605;52.704;6.752;2023-03-31T15:54:30;13.00;99.90
53711;DHT22;39605;52.704;6.752;2023-03-31T15:56:59;12.90;99.90
53711;DHT22;39605;52.704;6.752;2023-03-31T15:59:30;12.90;99.90
53711;DHT22;39605;52.704;6.752;2023-03-31T16:01:57;12.90;99.90
53711;DHT22;39605;52.704;6.752;2023-03-31T16:04:30;12.80;99.90
53711;DHT22;39605;52.704;6.752;2023-03-31T16:07:08;12.80;99.90
53711;DHT22;39605;52.704;6.752;2023-03-31T16:09:46;12.80;99.90
53711;DHT22;39605;52.704;6.752;2023-03-31T16:12:22;12.80;99.90
53711;DHT22;39605;52.704;6.752;2023-03-31T16:19:56;12.70;99.90
53711;DHT22;39605;52.704;6.752;2023-03-31T16:22:27;12.70;99.90
53711;DHT22;39605;52.704;6.752;2023-03-31T16:24:55;12.70;99.90
53711;DHT22;39605;52.704;6.752;2023-03-31T16:27:21;12.60;99.90
53711;DHT22;39605;52.704;6.752;2023-03-31T16:29:47;12.60;99.90
53711;DHT22;39605;52.704;6.752;2023-03-31T16:32:15;12.50;99.90
53711;DHT22;39605;52.704;6.752;2023-03-31T16:35:04;12.50;99.90
53711;DHT22;39605;52.704;6.752;2023-03-31T16:37:30;12.40;99.90
53711;DHT22;39605;52.704;6.752;2023-03-31T16:39:56;12.40;99.90
53711;DHT22;39605;52.704;6.752;2023-03-31T16:42:22;12.30;99.90
53711;DHT22;39605;52.704;6.752;2023-03-31T16:44:48;12.20;99.90
53711;DHT22;39605;52.704;6.752;2023-03-31T16:47:13;12.20;99.90
53711;DHT22;39605;52.704;6.752;2023-03-31T16:49:40;12.20;99.90
53711;DHT22;39605;52.704;6.752;2023-03-31T16:52:06;12.20;99.90
53711;DHT22;39605;52.704;6.752;2023-03-31T16:54:33;12.20;99.90
53711;DHT22;39605;52.704;6.752;2023-03-31T16:56:59;12.20;99.90
53711;DHT22;39605;52.704;6.752;2023-03-31T16:59:25;12.20;99.90
53711;DHT22;39605;52.704;6.752;2023-03-31T17:01:51;12.10;99.90
53711;DHT22;39605;52.704;6.752;2023-03-31T17:04:17;12.10;99.90
53711;DHT22;39605;52.704;6.752;2023-03-31T17:06:44;12.10;99.90
53711;DHT22;39605;52.704;6.752;2023-03-31T17:09:10;12.10;99.90
53711;DHT22;39605;52.704;6.752;2023-03-31T17:11:35;12.10;99.90
53711;DHT22;39605;52.704;6.752;2023-03-31T17:14:01;12.10;99.90
53711;DHT22;39605;52.704;6.752;2023-03-31T17:16:28;12.00;99.90
53711;DHT22;39605;52.704;6.752;2023-03-31T17:18:54;12.00;99.90
53711;DHT22;39605;52.704;6.752;2023-03-31T17:21:19;12.00;99.90
53711;DHT22;39605;52.704;6.752;2023-03-31T17:23:46;12.00;99.90
53711;DHT22;39605;52.704;6.752;2023-03-31T17:26:12;11.90;99.90
53711;DHT22;39605;52.704;6.752;2023-03-31T17:28:38;11.90;99.90
53711;DHT22;39605;52.704;6.752;2023-03-31T17:31:16;11.90;99.90
53711;DHT22;39605;52.704;6.752;2023-03-31T17:33:42;11.90;99.90
53711;DHT22;39605;52.704;6.752;2023-03-31T17:36:08;11.80;99.90
53711;DHT22;39605;52.704;6.752;2023-03-31T17:38:34;11.80;99.90
53711;DHT22;39605;52.704;6.752;2023-03-31T17:41:04;11.80;99.90
53711;DHT22;39605;52.704;6.752;2023-03-31T17:43:30;11.80;99.90
53711;DHT22;39605;52.704;6.752;2023-03-31T17:46:05;11.70;99.90
53711;DHT22;39605;52.704;6.752;2023-03-31T17:48:32;11.70;99.90
53711;DHT22;39605;52.704;6.752;2023-03-31T17:51:07;11.70;99.90
53711;DHT22;39605;52.704;6.752;2023-03-31T17:53:34;11.60;99.90
53711;DHT22;39605;52.704;6.752;2023-03-31T17:56:01;11.60;99.90
53711;DHT22;39605;52.704;6.752;2023-03-31T17:58:26;11.50;99.90
53711;DHT22;39605;52.704;6.752;2023-03-31T18:00:52;11.50;99.90
53711;DHT22;39605;52.704;6.752;2023-03-31T18:03:18;11.50;99.90
53711;DHT22;39605;52.704;6.752;2023-03-31T18:05:45;11.50;99.90
53711;DHT22;39605;52.704;6.752;2023-03-31T18:08:11;11.40;99.90
53711;DHT22;39605;52.704;6.752;2023-03-31T18:10:37;11.40;99.90
53711;DHT22;39605;52.704;6.752;2023-03-31T18:13:03;11.40;99.90
53711;DHT22;39605;52.704;6.752;2023-03-31T18:15:28;11.40;99.90
53711;DHT22;39605;52.704;6.752;2023-03-31T18:17:54;11.40;99.90
53711;DHT22;39605;52.704;6.752;2023-03-31T18:20:20;11.40;99.90
53711;DHT22;39605;52.704;6.752;2023-03-31T18:22:47;11.30;99.90
53711;DHT22;39605;52.704;6.752;2023-03-31T18:25:14;11.30;99.90
53711;DHT22;39605;52.704;6.752;2023-03-31T18:27:40;11.30;99.90
53711;DHT22;39605;52.704;6.752;2023-03-31T18:30:06;11.30;99.90
53711;DHT22;39605;52.704;6.752;2023-03-31T18:32:33;11.30;99.90
53711;DHT22;39605;52.704;6.752;2023-03-31T18:34:59;11.30;99.90
53711;DHT22;39605;52.704;6.752;2023-03-31T18:37:24;11.30;99.90
53711;DHT22;39605;52.704;6.752;2023-03-31T18:39:50;11.30;99.90
53711;DHT22;39605;52.704;6.752;2023-03-31T18:42:16;11.30;99.90